sensor_id;sensor_type;location;lat;lon;timestamp;temperature;humidity
51035;DHT22;37062;52.546;13.230;2023-08-30T00:01:48;16.80;99.90
51035;DHT22;37062;52.546;13.230;2023-08-30T00:04:17;16.80;99.90
51035;DHT22;37062;52.546;13.230;2023-08-30T00:06:45;16.80;99.90
51035;DHT22;37062;52.546;13.230;2023-08-30T00:09:14;16.70;99.90
51035;DHT22;37062;52.546;13.230;2023-08-30T00:11:43;16.60;99.90
51035;DHT22;37062;52.546;13.230;2023-08-30T00:14:11;16.60;99.90
51035;DHT22;37062;52.546;13.230;2023-08-30T00:16:40;16.60;99.90
51035;DHT22;37062;52.546;13.230;2023-08-30T00:19:08;16.70;99.90
51035;DHT22;37062;52.546;13.230;2023-08-30T00:21:36;16.70;99.90
51035;DHT22;37062;52.546;13.230;2023-08-30T00:24:05;16.70;99.90
51035;DHT22;37062;52.546;13.230;2023-08-30T00:26:35;16.70;99.90
51035;DHT22;37062;52.546;13.230;2023-08-30T00:29:04;16.70;99.90
51035;DHT22;37062;52.546;13.230;2023-08-30T00:31:32;16.60;99.90
51035;DHT22;37062;52.546;13.230;2023-08-30T00:34:01;16.60;99.90
51035;DHT22;37062;52.546;13.230;2023-08-30T00:36:29;16.60;99.90
51035;DHT22;37062;52.546;13.230;2023-08-30T00:38:58;16.60;99.90
51035;DHT22;37062;52.546;13.230;2023-08-30T00:41:26;16.70;99.90
51035;DHT22;37062;52.546;13.230;2023-08-30T00:43:57;16.70;99.90
51035;DHT22;37062;52.546;13.230;2023-08-30T00:46:25;16.70;99.90
51035;DHT22;37062;52.546;13.230;2023-08-30T00:48:55;16.70;99.90
51035;DHT22;37062;52.546;13.230;2023-08-30T00:51:25;16.70;99.90
51035;DHT22;37062;52.546;13.230;2023-08-30T00:53:54;16.70;99.90
51035;DHT22;37062;52.546;13.230;2023-08-30T00:56:23;16.70;99.90
51035;DHT22;37062;52.546;13.230;2023-08-30T00:58:52;16.60;99.90
51035;DHT22;37062;52.546;13.230;2023-08-30T01:01:22;16.60;99.90
51035;DHT22;37062;52.546;13.230;2023-08-30T01:03:53;16.60;99.90
51035;DHT22;37062;52.546;13.230;2023-08-30T01:06:22;16.60;99.90
51035;DHT22;37062;52.546;13.230;2023-08-30T01:08:51;16.60;99.90
51035;DHT22;37062;52.546;13.230;2023-08-30T01:11:28;16.60;99.90
51035;DHT22;37062;52.546;13.230;2023-08-30T01:14:03;16.60;99.90
51035;DHT22;37062;52.546;13.230;2023-08-30T01:16:36;16.50;99.90
51035;DHT22;37062;52.546;13.230;2023-08-30T01:19:18;16.50;99.90
51035;DHT22;37062;52.546;13.230;2023-08-30T01:21:58;16.60;99.90
51035;DHT22;37062;52.546;13.230;2023-08-30T01:24:36;16.60;99.90
51035;DHT22;37062;52.546;13.230;2023-08-30T01:27:11;16.50;99.90
51035;DHT22;37062;52.546;13.230;2023-08-30T01:29:44;16.40;99.90
51035;DHT22;37062;52.546;13.230;2023-08-30T01:32:13;16.40;99.90
51035;DHT22;37062;52.546;13.230;2023-08-30T01:34:42;16.30;99.90
51035;DHT22;37062;52.546;13.230;2023-08-30T01:37:12;16.30;99.90
51035;DHT22;37062;52.546;13.230;2023-08-30T01:39:41;16.30;99.90
51035;DHT22;37062;52.546;13.230;2023-08-30T01:42:12;16.30;99.90
51035;DHT22;37062;52.546;13.230;2023-08-30T01:44:42;16.30;99.90
51035;DHT22;37062;52.546;13.230;2023-08-30T01:47:12;16.40;99.90
51035;DHT22;37062;52.546;13.230;2023-08-30T01:49:43;16.40;99.90
51035;DHT22;37062;52.546;13.230;2023-08-30T01:52:13;16.40;99.90
51035;DHT22;37062;52.546;13.230;2023-08-30T01:54:45;16.40;99.90
51035;DHT22;37062;52.546;13.230;2023-08-30T01:57:16;16.40;99.90
51035;DHT22;37062;52.546;13.230;2023-08-30T01:59:44;16.40;99.90
51035;DHT22;37062;52.546;13.230;2023-08-30T02:02:16;16.50;99.90
51035;DHT22;37062;52.546;13.230;2023-08-30T02:04:44;16.50;99.90
51035;DHT22;37062;52.546;13.230;2023-08-30T02:07:16;16.50;99.90
51035;DHT22;37062;52.546;13.230;2023-08-30T02:09:49;16.50;99.90
51035;DHT22;37062;52.546;13.230;2023-08-30T02:12:23;16.50;99.90
51035;DHT22;37062;52.546;13.230;2023-08-30T02:14:53;16.50;99.90
51035;DHT22;37062;52.546;13.230;2023-08-30T02:17:22;16.50;99.90
51035;DHT22;37062;52.546;13.230;2023-08-30T02:19:51;16.50;99.90
51035;DHT22;37062;52.546;13.230;2023-08-30T02:22:20;16.50;99.90
51035;DHT22;37062;52.546;13.230;2023-08-30T02:24:48;16.50;99.90
51035;DHT22;37062;52.546;13.230;2023-08-30T02:27:17;16.40;99.90
51035;DHT22;37062;52.546;13.230;2023-08-30T02:29:46;16.40;99.90
51035;DHT22;37062;52.546;13.230;2023-08-30T02:32:14;16.50;99.90
51035;DHT22;37062;52.546;13.230;2023-08-30T02:34:50;16.40;99.90
51035;DHT22;37062;52.546;13.230;2023-08-30T02:37:20;16.50;99.90
51035;DHT22;37062;52.546;13.230;2023-08-30T02:39:50;16.40;99.90
51035;DHT22;37062;52.546;13.230;2023-08-30T02:42:18;16.40;99.90
51035;DHT22;37062;52.546;13.230;2023-08-30T02:44:48;16.40;99.90
51035;DHT22;37062;52.546;13.230;2023-08-30T02:47:16;16.40;99.90
51035;DHT22;37062;52.546;13.230;2023-08-30T02:49:44;16.40;99.90
51035;DHT22;37062;52.546;13.230;2023-08-30T02:52:12;16.40;99.90
51035;DHT22;37062;52.546;13.230;2023-08-30T02:54:41;16.40;99.90
51035;DHT22;37062;52.546;13.230;2023-08-30T02:57:09;16.30;99.90
51035;DHT22;37062;52.546;13.230;2023-08-30T02:59:37;16.20;99.90
51035;DHT22;37062;52.546;13.230;2023-08-30T03:02:07;16.10;99.90
51035;DHT22;37062;52.546;13.230;2023-08-30T03:04:36;16.10;99.90
51035;DHT22;37062;52.546;13.230;2023-08-30T03:07:05;16.10;99.90
51035;DHT22;37062;52.546;13.230;2023-08-30T03:09:33;16.10;99.90
51035;DHT22;37062;52.546;13.230;2023-08-30T03:12:02;16.20;99.90
51035;DHT22;37062;52.546;13.230;2023-08-30T03:14:31;16.20;99.90
51035;DHT22;37062;52.546;13.230;2023-08-30T03:17:00;16.20;99.90
51035;DHT22;37062;52.546;13.230;2023-08-30T03:19:29;16.20;99.90
51035;DHT22;37062;52.546;13.230;2023-08-30T03:21:58;16.20;99.90
51035;DHT22;37062;52.546;13.230;2023-08-30T03:24:27;16.20;99.90
51035;DHT22;37062;52.546;13.230;2023-08-30T03:26:56;16.20;99.90
51035;DHT22;37062;52.546;13.230;2023-08-30T03:29:26;16.20;99.90
51035;DHT22;37062;52.546;13.230;2023-08-30T03:31:55;16.10;99.90
51035;DHT22;37062;52.546;13.230;2023-08-30T03:34:23;16.10;99.90
51035;DHT22;37062;52.546;13.230;2023-08-30T03:36:53;16.10;99.90
51035;DHT22;37062;52.546;13.230;2023-08-30T03:39:22;16.10;99.90
51035;DHT22;37062;52.546;13.230;2023-08-30T03:41:51;16.10;99.90
51035;DHT22;37062;52.546;13.230;2023-08-30T03:44:19;16.10;99.90
51035;DHT22;37062;52.546;13.230;2023-08-30T03:46:47;16.10;99.90
51035;DHT22;37062;52.546;13.230;2023-08-30T03:49:16;16.10;99.90
51035;DHT22;37062;52.546;13.230;2023-08-30T03:51:45;16.10;99.90
51035;DHT22;37062;52.546;13.230;2023-08-30T03:54:15;16.00;99.90
51035;DHT22;37062;52.546;13.230;2023-08-30T03:56:43;16.00;99.90
51035;DHT22;37062;52.546;13.230;2023-08-30T03:59:12;16.00;99.90
51035;DHT22;37062;52.546;13.230;2023-08-30T04:01:40;16.00;99.90
51035;DHT22;37062;52.546;13.230;2023-08-30T04:04:08;16.00;99.90
51035;DHT22;37062;52.546;13.230;2023-08-30T04:06:36;15.90;99.90
51035;DHT22;37062;52.546;13.230;2023-08-30T04:09:05;16.00;99.90
51035;DHT22;37062;52.546;13.230;2023-08-30T04:11:34;15.90;99.90
51035;DHT22;37062;52.546;13.230;2023-08-30T04:14:04;15.90;99.90
51035;DHT22;37062;52.546;13.230;2023-08-30T04:16:32;15.90;99.90
51035;DHT22;37062;52.546;13.230;2023-08-30T04:19:00;15.90;99.90
51035;DHT22;37062;52.546;13.230;2023-08-30T04:21:29;16.00;99.90
51035;DHT22;37062;52.546;13.230;2023-08-30T04:23:57;15.90;99.90
51035;DHT22;37062;52.546;13.230;2023-08-30T04:26:25;16.00;99.90
51035;DHT22;37062;52.546;13.230;2023-08-30T04:28:55;16.00;99.90
51035;DHT22;37062;52.546;13.230;2023-08-30T04:31:24;16.00;99.90
51035;DHT22;37062;52.546;13.230;2023-08-30T04:33:52;16.00;99.90
51035;DHT22;37062;52.546;13.230;2023-08-30T04:36:22;16.00;99.90
51035;DHT22;37062;52.546;13.230;2023-08-30T04:38:50;16.00;99.90
51035;DHT22;37062;52.546;13.230;2023-08-30T04:41:30;16.00;99.90
51035;DHT22;37062;52.546;13.230;2023-08-30T04:44:02;16.00;99.90
51035;DHT22;37062;52.546;13.230;2023-08-30T04:46:30;16.10;99.90
51035;DHT22;37062;52.546;13.230;2023-08-30T04:48:59;16.10;99.90
51035;DHT22;37062;52.546;13.230;2023-08-30T04:51:28;16.10;99.90
51035;DHT22;37062;52.546;13.230;2023-08-30T04:53:56;16.20;99.90
51035;DHT22;37062;52.546;13.230;2023-08-30T04:56:24;16.20;99.90
51035;DHT22;37062;52.546;13.230;2023-08-30T04:58:53;16.20;99.90
51035;DHT22;37062;52.546;13.230;2023-08-30T05:01:23;16.30;99.90
51035;DHT22;37062;52.546;13.230;2023-08-30T05:03:54;16.40;99.90
51035;DHT22;37062;52.546;13.230;2023-08-30T05:06:24;16.60;99.90
51035;DHT22;37062;52.546;13.230;2023-08-30T05:08:52;16.70;99.90
51035;DHT22;37062;52.546;13.230;2023-08-30T05:11:20;16.80;99.90
51035;DHT22;37062;52.546;13.230;2023-08-30T05:13:48;16.90;99.90
51035;DHT22;37062;52.546;13.230;2023-08-30T05:16:16;17.00;99.90
51035;DHT22;37062;52.546;13.230;2023-08-30T05:18:46;17.10;99.90
51035;DHT22;37062;52.546;13.230;2023-08-30T05:21:16;17.20;99.90
51035;DHT22;37062;52.546;13.230;2023-08-30T05:23:45;17.30;99.90
51035;DHT22;37062;52.546;13.230;2023-08-30T05:26:14;17.40;99.90
51035;DHT22;37062;52.546;13.230;2023-08-30T05:28:43;17.40;99.90
51035;DHT22;37062;52.546;13.230;2023-08-30T05:31:12;17.50;99.90
51035;DHT22;37062;52.546;13.230;2023-08-30T05:34:21;17.70;99.90
51035;DHT22;37062;52.546;13.230;2023-08-30T05:37:09;17.70;99.90
51035;DHT22;37062;52.546;13.230;2023-08-30T05:39:57;17.80;99.90
51035;DHT22;37062;52.546;13.230;2023-08-30T05:42:25;17.80;99.90
51035;DHT22;37062;52.546;13.230;2023-08-30T05:44:55;17.90;99.90
51035;DHT22;37062;52.546;13.230;2023-08-30T05:47:24;17.90;99.90
51035;DHT22;37062;52.546;13.230;2023-08-30T05:49:53;18.00;99.90
51035;DHT22;37062;52.546;13.230;2023-08-30T05:52:22;18.00;99.90
51035;DHT22;37062;52.546;13.230;2023-08-30T05:54:52;18.00;99.90
51035;DHT22;37062;52.546;13.230;2023-08-30T05:57:21;18.10;99.90
51035;DHT22;37062;52.546;13.230;2023-08-30T05:59:50;18.10;99.90
51035;DHT22;37062;52.546;13.230;2023-08-30T06:02:18;18.20;99.90
51035;DHT22;37062;52.546;13.230;2023-08-30T06:04:47;18.20;99.90
51035;DHT22;37062;52.546;13.230;2023-08-30T06:07:16;18.30;99.90
51035;DHT22;37062;52.546;13.230;2023-08-30T06:09:45;18.40;99.90
51035;DHT22;37062;52.546;13.230;2023-08-30T06:12:13;18.50;99.90
51035;DHT22;37062;52.546;13.230;2023-08-30T06:14:42;18.50;99.90
51035;DHT22;37062;52.546;13.230;2023-08-30T06:17:10;18.60;99.90
51035;DHT22;37062;52.546;13.230;2023-08-30T06:19:38;18.60;99.90
51035;DHT22;37062;52.546;13.230;2023-08-30T06:22:06;18.70;99.90
51035;DHT22;37062;52.546;13.230;2023-08-30T06:24:36;18.70;99.90
51035;DHT22;37062;52.546;13.230;2023-08-30T06:27:05;18.80;99.90
51035;DHT22;37062;52.546;13.230;2023-08-30T06:29:33;18.80;99.90
51035;DHT22;37062;52.546;13.230;2023-08-30T06:32:01;18.80;99.90
51035;DHT22;37062;52.546;13.230;2023-08-30T06:34:30;18.80;99.90
51035;DHT22;37062;52.546;13.230;2023-08-30T06:36:59;18.90;99.90
51035;DHT22;37062;52.546;13.230;2023-08-30T06:39:32;18.90;99.90
51035;DHT22;37062;52.546;13.230;2023-08-30T06:42:03;18.80;99.90
51035;DHT22;37062;52.546;13.230;2023-08-30T06:44:31;18.60;99.90
51035;DHT22;37062;52.546;13.230;2023-08-30T06:46:59;18.60;99.90
51035;DHT22;37062;52.546;13.230;2023-08-30T06:49:28;18.50;99.90
51035;DHT22;37062;52.546;13.230;2023-08-30T06:51:58;18.50;99.90
51035;DHT22;37062;52.546;13.230;2023-08-30T06:54:28;18.40;99.90
51035;DHT22;37062;52.546;13.230;2023-08-30T06:56:57;18.40;99.90
51035;DHT22;37062;52.546;13.230;2023-08-30T06:59:28;18.40;99.90
51035;DHT22;37062;52.546;13.230;2023-08-30T07:01:56;18.40;99.90
51035;DHT22;37062;52.546;13.230;2023-08-30T07:04:24;18.40;99.90
51035;DHT22;37062;52.546;13.230;2023-08-30T07:06:52;18.40;99.90
51035;DHT22;37062;52.546;13.230;2023-08-30T07:09:20;18.50;99.90
51035;DHT22;37062;52.546;13.230;2023-08-30T07:11:55;18.50;99.90
51035;DHT22;37062;52.546;13.230;2023-08-30T07:14:23;18.40;99.90
51035;DHT22;37062;52.546;13.230;2023-08-30T07:16:54;18.40;99.90
51035;DHT22;37062;52.546;13.230;2023-08-30T07:19:24;18.50;99.90
51035;DHT22;37062;52.546;13.230;2023-08-30T07:21:52;18.60;99.90
51035;DHT22;37062;52.546;13.230;2023-08-30T07:24:20;18.70;99.90
51035;DHT22;37062;52.546;13.230;2023-08-30T07:26:49;18.80;99.90
51035;DHT22;37062;52.546;13.230;2023-08-30T07:29:18;18.80;99.90
51035;DHT22;37062;52.546;13.230;2023-08-30T07:31:46;18.90;99.90
51035;DHT22;37062;52.546;13.230;2023-08-30T07:34:15;18.90;99.90
51035;DHT22;37062;52.546;13.230;2023-08-30T07:36:44;19.00;99.90
51035;DHT22;37062;52.546;13.230;2023-08-30T07:39:14;19.10;99.90
51035;DHT22;37062;52.546;13.230;2023-08-30T07:41:42;19.10;99.90
51035;DHT22;37062;52.546;13.230;2023-08-30T07:44:10;19.10;99.90
51035;DHT22;37062;52.546;13.230;2023-08-30T07:46:41;19.10;99.90
51035;DHT22;37062;52.546;13.230;2023-08-30T07:49:09;19.10;99.90
51035;DHT22;37062;52.546;13.230;2023-08-30T07:51:39;19.20;99.90
51035;DHT22;37062;52.546;13.230;2023-08-30T07:54:07;19.20;99.90
51035;DHT22;37062;52.546;13.230;2023-08-30T07:56:36;19.30;99.90
51035;DHT22;37062;52.546;13.230;2023-08-30T07:59:04;19.30;99.90
51035;DHT22;37062;52.546;13.230;2023-08-30T08:01:32;19.30;99.90
51035;DHT22;37062;52.546;13.230;2023-08-30T08:04:01;19.40;99.90
51035;DHT22;37062;52.546;13.230;2023-08-30T08:06:33;19.40;99.90
51035;DHT22;37062;52.546;13.230;2023-08-30T08:09:05;19.40;99.90
51035;DHT22;37062;52.546;13.230;2023-08-30T08:11:34;19.60;99.90
51035;DHT22;37062;52.546;13.230;2023-08-30T08:14:02;19.60;99.90
51035;DHT22;37062;52.546;13.230;2023-08-30T08:16:31;19.70;99.90
51035;DHT22;37062;52.546;13.230;2023-08-30T08:19:00;19.80;99.90
51035;DHT22;37062;52.546;13.230;2023-08-30T08:21:28;19.90;99.90
51035;DHT22;37062;52.546;13.230;2023-08-30T08:23:57;20.00;99.90
51035;DHT22;37062;52.546;13.230;2023-08-30T08:26:26;20.10;99.90
51035;DHT22;37062;52.546;13.230;2023-08-30T08:28:54;20.20;99.90
51035;DHT22;37062;52.546;13.230;2023-08-30T08:31:23;20.30;99.90
51035;DHT22;37062;52.546;13.230;2023-08-30T08:34:04;20.40;99.90
51035;DHT22;37062;52.546;13.230;2023-08-30T08:36:32;20.50;99.90
51035;DHT22;37062;52.546;13.230;2023-08-30T08:39:00;20.50;99.90
51035;DHT22;37062;52.546;13.230;2023-08-30T08:41:36;20.60;99.90
51035;DHT22;37062;52.546;13.230;2023-08-30T08:44:06;20.60;99.90
51035;DHT22;37062;52.546;13.230;2023-08-30T08:46:35;20.80;99.90
51035;DHT22;37062;52.546;13.230;2023-08-30T08:49:08;20.90;99.90
51035;DHT22;37062;52.546;13.230;2023-08-30T08:51:37;21.10;99.90
51035;DHT22;37062;52.546;13.230;2023-08-30T08:54:06;21.20;99.90
51035;DHT22;37062;52.546;13.230;2023-08-30T08:56:38;21.30;99.90
51035;DHT22;37062;52.546;13.230;2023-08-30T08:59:06;21.50;99.90
51035;DHT22;37062;52.546;13.230;2023-08-30T09:01:36;21.60;99.90
51035;DHT22;37062;52.546;13.230;2023-08-30T09:04:08;21.80;99.90
51035;DHT22;37062;52.546;13.230;2023-08-30T09:06:37;22.00;99.90
51035;DHT22;37062;52.546;13.230;2023-08-30T09:09:07;22.20;99.90
51035;DHT22;37062;52.546;13.230;2023-08-30T09:11:37;22.40;99.90
51035;DHT22;37062;52.546;13.230;2023-08-30T09:14:17;22.60;99.90
51035;DHT22;37062;52.546;13.230;2023-08-30T09:16:54;22.70;99.90
51035;DHT22;37062;52.546;13.230;2023-08-30T09:19:23;22.80;99.90
51035;DHT22;37062;52.546;13.230;2023-08-30T09:21:51;23.00;99.90
51035;DHT22;37062;52.546;13.230;2023-08-30T09:24:20;23.20;99.90
51035;DHT22;37062;52.546;13.230;2023-08-30T09:26:51;23.30;99.90
51035;DHT22;37062;52.546;13.230;2023-08-30T09:29:20;23.50;99.90
51035;DHT22;37062;52.546;13.230;2023-08-30T09:31:51;23.60;99.90
51035;DHT22;37062;52.546;13.230;2023-08-30T09:34:22;23.60;99.90
51035;DHT22;37062;52.546;13.230;2023-08-30T09:36:51;23.60;99.90
51035;DHT22;37062;52.546;13.230;2023-08-30T09:39:20;23.50;99.90
51035;DHT22;37062;52.546;13.230;2023-08-30T09:41:50;23.50;99.90
51035;DHT22;37062;52.546;13.230;2023-08-30T09:44:20;23.50;99.90
51035;DHT22;37062;52.546;13.230;2023-08-30T09:46:50;23.50;99.90
51035;DHT22;37062;52.546;13.230;2023-08-30T09:49:21;23.40;99.90
51035;DHT22;37062;52.546;13.230;2023-08-30T09:51:50;23.30;99.90
51035;DHT22;37062;52.546;13.230;2023-08-30T09:54:21;23.20;99.90
51035;DHT22;37062;52.546;13.230;2023-08-30T09:57:07;23.10;99.90
51035;DHT22;37062;52.546;13.230;2023-08-30T09:59:35;23.00;99.90
51035;DHT22;37062;52.546;13.230;2023-08-30T10:02:05;23.00;99.90
51035;DHT22;37062;52.546;13.230;2023-08-30T10:04:35;22.90;99.90
51035;DHT22;37062;52.546;13.230;2023-08-30T10:07:06;22.90;99.90
51035;DHT22;37062;52.546;13.230;2023-08-30T10:09:37;23.00;99.90
51035;DHT22;37062;52.546;13.230;2023-08-30T10:12:20;23.10;99.90
51035;DHT22;37062;52.546;13.230;2023-08-30T10:14:49;23.20;99.90
51035;DHT22;37062;52.546;13.230;2023-08-30T10:17:18;23.20;99.90
51035;DHT22;37062;52.546;13.230;2023-08-30T10:19:49;23.10;99.90
51035;DHT22;37062;52.546;13.230;2023-08-30T10:22:19;23.00;99.90
51035;DHT22;37062;52.546;13.230;2023-08-30T10:24:52;23.10;99.90
51035;DHT22;37062;52.546;13.230;2023-08-30T10:27:41;23.00;99.90
51035;DHT22;37062;52.546;13.230;2023-08-30T10:30:11;23.10;99.90
51035;DHT22;37062;52.546;13.230;2023-08-30T10:32:41;23.10;99.90
51035;DHT22;37062;52.546;13.230;2023-08-30T10:35:11;23.30;99.90
51035;DHT22;37062;52.546;13.230;2023-08-30T10:37:40;23.40;99.90
51035;DHT22;37062;52.546;13.230;2023-08-30T10:40:09;23.50;99.90
51035;DHT22;37062;52.546;13.230;2023-08-30T10:42:40;23.60;99.90
51035;DHT22;37062;52.546;13.230;2023-08-30T10:45:08;23.80;99.90
51035;DHT22;37062;52.546;13.230;2023-08-30T10:47:40;23.90;99.90
51035;DHT22;37062;52.546;13.230;2023-08-30T10:50:10;24.00;99.90
51035;DHT22;37062;52.546;13.230;2023-08-30T10:52:39;24.10;99.90
51035;DHT22;37062;52.546;13.230;2023-08-30T10:55:08;24.10;99.90
51035;DHT22;37062;52.546;13.230;2023-08-30T10:57:40;24.10;99.90
51035;DHT22;37062;52.546;13.230;2023-08-30T11:00:12;24.10;99.90
51035;DHT22;37062;52.546;13.230;2023-08-30T11:02:44;24.20;99.90
51035;DHT22;37062;52.546;13.230;2023-08-30T11:05:15;24.40;99.90
51035;DHT22;37062;52.546;13.230;2023-08-30T11:07:44;24.50;99.90
51035;DHT22;37062;52.546;13.230;2023-08-30T11:10:13;24.60;99.90
51035;DHT22;37062;52.546;13.230;2023-08-30T11:12:43;24.60;99.90
51035;DHT22;37062;52.546;13.230;2023-08-30T11:15:13;24.60;99.90
51035;DHT22;37062;52.546;13.230;2023-08-30T11:17:41;24.50;99.90
51035;DHT22;37062;52.546;13.230;2023-08-30T11:20:12;24.50;99.90
51035;DHT22;37062;52.546;13.230;2023-08-30T11:22:42;24.50;99.90
51035;DHT22;37062;52.546;13.230;2023-08-30T11:25:11;24.50;99.90
51035;DHT22;37062;52.546;13.230;2023-08-30T11:27:40;24.60;99.90
51035;DHT22;37062;52.546;13.230;2023-08-30T11:30:11;24.70;99.90
51035;DHT22;37062;52.546;13.230;2023-08-30T11:32:40;24.80;99.90
51035;DHT22;37062;52.546;13.230;2023-08-30T11:35:10;24.70;99.90
51035;DHT22;37062;52.546;13.230;2023-08-30T11:37:40;24.70;99.90
51035;DHT22;37062;52.546;13.230;2023-08-30T11:40:09;24.60;99.90
51035;DHT22;37062;52.546;13.230;2023-08-30T11:42:39;24.60;99.90
51035;DHT22;37062;52.546;13.230;2023-08-30T11:45:09;24.70;99.90
51035;DHT22;37062;52.546;13.230;2023-08-30T11:47:38;24.80;99.90
51035;DHT22;37062;52.546;13.230;2023-08-30T11:50:09;24.80;99.90
51035;DHT22;37062;52.546;13.230;2023-08-30T11:52:39;24.90;99.90
51035;DHT22;37062;52.546;13.230;2023-08-30T11:55:08;24.80;99.90
51035;DHT22;37062;52.546;13.230;2023-08-30T11:57:36;24.90;99.90
51035;DHT22;37062;52.546;13.230;2023-08-30T12:00:11;25.00;99.90
51035;DHT22;37062;52.546;13.230;2023-08-30T12:02:39;25.00;99.90
51035;DHT22;37062;52.546;13.230;2023-08-30T12:05:11;24.80;99.90
51035;DHT22;37062;52.546;13.230;2023-08-30T12:07:38;24.90;99.90
51035;DHT22;37062;52.546;13.230;2023-08-30T12:10:08;24.90;99.90
51035;DHT22;37062;52.546;13.230;2023-08-30T12:12:36;24.90;99.90
51035;DHT22;37062;52.546;13.230;2023-08-30T12:15:09;24.90;99.90
51035;DHT22;37062;52.546;13.230;2023-08-30T12:17:38;24.90;99.90
51035;DHT22;37062;52.546;13.230;2023-08-30T12:20:15;24.90;99.90
51035;DHT22;37062;52.546;13.230;2023-08-30T12:22:44;24.90;99.90
51035;DHT22;37062;52.546;13.230;2023-08-30T12:25:16;24.80;99.90
51035;DHT22;37062;52.546;13.230;2023-08-30T12:27:46;24.60;99.90
51035;DHT22;37062;52.546;13.230;2023-08-30T12:30:16;24.40;99.90
51035;DHT22;37062;52.546;13.230;2023-08-30T12:32:44;24.30;99.90
51035;DHT22;37062;52.546;13.230;2023-08-30T12:35:13;24.20;99.90
51035;DHT22;37062;52.546;13.230;2023-08-30T12:37:41;24.20;99.90
51035;DHT22;37062;52.546;13.230;2023-08-30T12:40:11;24.20;99.90
51035;DHT22;37062;52.546;13.230;2023-08-30T12:42:39;24.10;99.90
51035;DHT22;37062;52.546;13.230;2023-08-30T12:45:08;24.10;99.90
51035;DHT22;37062;52.546;13.230;2023-08-30T12:47:38;24.00;99.90
51035;DHT22;37062;52.546;13.230;2023-08-30T12:50:07;23.90;99.90
51035;DHT22;37062;52.546;13.230;2023-08-30T12:52:36;24.00;99.90
51035;DHT22;37062;52.546;13.230;2023-08-30T12:55:05;23.90;99.90
51035;DHT22;37062;52.546;13.230;2023-08-30T12:57:33;23.90;99.90
51035;DHT22;37062;52.546;13.230;2023-08-30T13:00:01;23.90;99.90
51035;DHT22;37062;52.546;13.230;2023-08-30T13:02:30;24.00;99.90
51035;DHT22;37062;52.546;13.230;2023-08-30T13:05:00;24.00;99.90
51035;DHT22;37062;52.546;13.230;2023-08-30T13:07:28;24.00;99.90
51035;DHT22;37062;52.546;13.230;2023-08-30T13:09:56;24.10;99.90
51035;DHT22;37062;52.546;13.230;2023-08-30T13:12:24;24.10;99.90
51035;DHT22;37062;52.546;13.230;2023-08-30T13:14:53;24.30;99.90
51035;DHT22;37062;52.546;13.230;2023-08-30T13:17:21;24.30;99.90
51035;DHT22;37062;52.546;13.230;2023-08-30T13:19:49;24.30;99.90
51035;DHT22;37062;52.546;13.230;2023-08-30T13:22:19;24.30;99.90
51035;DHT22;37062;52.546;13.230;2023-08-30T13:24:47;24.30;99.90
51035;DHT22;37062;52.546;13.230;2023-08-30T13:27:16;24.30;99.90
51035;DHT22;37062;52.546;13.230;2023-08-30T13:29:44;24.30;99.90
51035;DHT22;37062;52.546;13.230;2023-08-30T13:32:12;24.20;99.90
51035;DHT22;37062;52.546;13.230;2023-08-30T13:34:40;24.20;99.90
51035;DHT22;37062;52.546;13.230;2023-08-30T13:37:10;24.10;99.90
51035;DHT22;37062;52.546;13.230;2023-08-30T13:39:40;24.00;99.90
51035;DHT22;37062;52.546;13.230;2023-08-30T13:42:08;24.10;99.90
51035;DHT22;37062;52.546;13.230;2023-08-30T13:44:37;24.10;99.90
51035;DHT22;37062;52.546;13.230;2023-08-30T13:47:06;24.20;99.90
51035;DHT22;37062;52.546;13.230;2023-08-30T13:49:35;24.20;99.90
51035;DHT22;37062;52.546;13.230;2023-08-30T13:52:04;24.20;99.90
51035;DHT22;37062;52.546;13.230;2023-08-30T13:54:32;24.30;99.90
51035;DHT22;37062;52.546;13.230;2023-08-30T13:57:01;24.30;99.90
51035;DHT22;37062;52.546;13.230;2023-08-30T13:59:30;24.30;99.90
51035;DHT22;37062;52.546;13.230;2023-08-30T14:01:58;24.10;99.90
51035;DHT22;37062;52.546;13.230;2023-08-30T14:04:27;24.00;99.90
51035;DHT22;37062;52.546;13.230;2023-08-30T14:06:56;23.70;99.90
51035;DHT22;37062;52.546;13.230;2023-08-30T14:09:24;23.60;99.90
51035;DHT22;37062;52.546;13.230;2023-08-30T14:11:55;23.60;99.90
51035;DHT22;37062;52.546;13.230;2023-08-30T14:14:25;23.60;99.90
51035;DHT22;37062;52.546;13.230;2023-08-30T14:16:54;23.50;99.90
51035;DHT22;37062;52.546;13.230;2023-08-30T14:19:22;23.50;99.90
51035;DHT22;37062;52.546;13.230;2023-08-30T14:21:50;23.40;99.90
51035;DHT22;37062;52.546;13.230;2023-08-30T14:24:21;23.50;99.90
51035;DHT22;37062;52.546;13.230;2023-08-30T14:26:49;23.50;99.90
51035;DHT22;37062;52.546;13.230;2023-08-30T14:29:20;23.50;99.90
51035;DHT22;37062;52.546;13.230;2023-08-30T14:31:49;23.60;99.90
51035;DHT22;37062;52.546;13.230;2023-08-30T14:34:20;23.60;99.90
51035;DHT22;37062;52.546;13.230;2023-08-30T14:36:48;23.60;99.90
51035;DHT22;37062;52.546;13.230;2023-08-30T14:39:16;23.60;99.90
51035;DHT22;37062;52.546;13.230;2023-08-30T14:41:45;23.60;99.90
51035;DHT22;37062;52.546;13.230;2023-08-30T14:44:13;23.60;99.90
51035;DHT22;37062;52.546;13.230;2023-08-30T14:46:41;23.60;99.90
51035;DHT22;37062;52.546;13.230;2023-08-30T14:49:11;23.60;99.90
51035;DHT22;37062;52.546;13.230;2023-08-30T14:51:39;23.60;99.90
51035;DHT22;37062;52.546;13.230;2023-08-30T14:54:07;23.50;99.90
51035;DHT22;37062;52.546;13.230;2023-08-30T14:56:36;23.40;99.90
51035;DHT22;37062;52.546;13.230;2023-08-30T14:59:04;23.20;99.90
51035;DHT22;37062;52.546;13.230;2023-08-30T15:01:34;23.00;99.90
51035;DHT22;37062;52.546;13.230;2023-08-30T15:04:02;22.80;99.90
51035;DHT22;37062;52.546;13.230;2023-08-30T15:06:32;22.70;99.90
51035;DHT22;37062;52.546;13.230;2023-08-30T15:09:01;22.60;99.90
51035;DHT22;37062;52.546;13.230;2023-08-30T15:11:30;22.60;99.90
51035;DHT22;37062;52.546;13.230;2023-08-30T15:13:58;22.60;99.90
51035;DHT22;37062;52.546;13.230;2023-08-30T15:16:26;22.60;99.90
51035;DHT22;37062;52.546;13.230;2023-08-30T15:18:55;22.70;99.90
51035;DHT22;37062;52.546;13.230;2023-08-30T15:21:23;22.60;99.90
51035;DHT22;37062;52.546;13.230;2023-08-30T15:23:52;22.60;99.90
51035;DHT22;37062;52.546;13.230;2023-08-30T15:26:23;22.60;99.90
51035;DHT22;37062;52.546;13.230;2023-08-30T15:28:52;22.60;99.90
51035;DHT22;37062;52.546;13.230;2023-08-30T15:31:20;22.70;99.90